createdAt,value
2022-12-18T00:01:51.317Z,53.00
2022-12-18T00:04:22.440Z,52.80
2022-12-18T00:06:49.786Z,52.50
2022-12-18T00:09:16.852Z,52.10
2022-12-18T00:11:43.801Z,51.70
2022-12-18T00:14:11.425Z,52.10
2022-12-18T00:16:38.452Z,52.50
2022-12-18T00:19:05.574Z,52.60
2022-12-18T00:21:34.254Z,52.20
2022-12-18T00:24:01.360Z,52.10
2022-12-18T00:26:29.498Z,51.40
2022-12-18T00:28:59.592Z,51.20
2022-12-18T00:31:27.079Z,51.20
2022-12-18T00:33:55.287Z,51.00
2022-12-18T00:36:26.236Z,51.20
2022-12-18T00:38:54.044Z,51.20
2022-12-18T00:41:39.892Z,51.00
2022-12-18T00:44:07.041Z,51.00
2022-12-18T00:46:34.010Z,50.80
2022-12-18T00:49:00.845Z,50.90
2022-12-18T00:51:27.905Z,51.30
2022-12-18T00:53:54.848Z,51.70
2022-12-18T00:56:21.808Z,52.10
2022-12-18T00:58:48.787Z,52.40
2022-12-18T01:01:17.420Z,52.40
2022-12-18T01:03:46.293Z,52.20
2022-12-18T01:06:13.920Z,52.20
2022-12-18T01:08:40.920Z,52.40
2022-12-18T01:11:08.647Z,52.20
2022-12-18T01:13:35.996Z,52.00
2022-12-18T01:16:03.175Z,51.70
2022-12-18T01:18:30.146Z,51.30
2022-12-18T01:20:57.006Z,51.40
2022-12-18T01:23:24.035Z,51.20
2022-12-18T01:25:50.922Z,50.80
2022-12-18T01:28:17.957Z,50.20
2022-12-18T01:30:44.960Z,50.50
2022-12-18T01:33:11.926Z,50.70
2022-12-18T01:35:44.315Z,51.30
2022-12-18T01:38:11.307Z,51.60
2022-12-18T01:40:38.862Z,51.10
2022-12-18T01:43:06.038Z,51.00
2022-12-18T01:45:33.132Z,51.10
2022-12-18T01:48:01.019Z,50.90
2022-12-18T01:50:35.437Z,50.90
2022-12-18T01:53:18.870Z,51.20
2022-12-18T01:55:45.952Z,51.30
2022-12-18T01:58:12.920Z,51.40
2022-12-18T02:00:39.947Z,51.90
2022-12-18T02:03:06.919Z,52.30
2022-12-18T02:05:42.872Z,52.60
2022-12-18T02:08:25.112Z,52.70
2022-12-18T02:10:58.573Z,52.70
2022-12-18T02:13:29.407Z,52.60
2022-12-18T02:16:01.896Z,52.70
2022-12-18T02:18:29.742Z,53.10
2022-12-18T02:20:59.267Z,53.00
2022-12-18T02:23:37.084Z,52.80
2022-12-18T02:26:18.013Z,53.30
2022-12-18T02:28:46.784Z,54.10
2022-12-18T02:31:15.501Z,54.10
2022-12-18T02:33:42.639Z,54.40
2022-12-18T02:36:09.534Z,54.30
2022-12-18T02:38:36.439Z,53.90
2022-12-18T02:41:03.389Z,53.70
2022-12-18T02:43:30.552Z,53.40
2022-12-18T02:45:58.787Z,53.30
2022-12-18T02:48:27.070Z,53.90
2022-12-18T02:51:10.256Z,54.00
2022-12-18T02:53:42.587Z,54.30
2022-12-18T02:56:20.756Z,54.60
2022-12-18T02:58:57.223Z,55.00
2022-12-18T03:01:29.869Z,54.20
2022-12-18T03:03:58.709Z,54.00
2022-12-18T03:06:30.155Z,54.00
2022-12-18T03:09:01.283Z,53.80
2022-12-18T03:11:47.439Z,53.60
2022-12-18T03:14:14.367Z,53.20
2022-12-18T03:16:41.268Z,53.40
2022-12-18T03:19:10.345Z,54.00
2022-12-18T03:21:39.558Z,53.20
2022-12-18T03:24:08.658Z,52.90
2022-12-18T03:26:36.710Z,52.90
2022-12-18T03:29:05.184Z,52.80
2022-12-18T03:31:32.000Z,52.60
2022-12-18T03:33:59.726Z,52.90
2022-12-18T03:36:26.819Z,53.50
2022-12-18T03:38:53.687Z,53.60
2022-12-18T03:41:21.901Z,53.20
2022-12-18T03:43:57.893Z,52.40
2022-12-18T03:46:27.853Z,51.80
2022-12-18T03:48:58.018Z,52.10
2022-12-18T03:51:27.133Z,52.40
2022-12-18T03:53:55.821Z,52.10
2022-12-18T03:56:22.760Z,52.00
2022-12-18T03:58:49.613Z,52.10
2022-12-18T04:01:16.655Z,52.40
2022-12-18T04:03:44.228Z,53.10
2022-12-18T04:06:11.518Z,53.40
2022-12-18T04:08:39.697Z,53.80
2022-12-18T04:11:06.649Z,54.10
2022-12-18T04:13:34.632Z,53.70
2022-12-18T04:16:01.763Z,53.40
2022-12-18T04:18:28.667Z,53.40
2022-12-18T04:20:55.606Z,53.50
2022-12-18T04:23:22.740Z,53.60
2022-12-18T04:25:50.175Z,53.50
2022-12-18T04:28:17.091Z,53.50
2022-12-18T04:30:43.990Z,53.30
2022-12-18T04:33:11.930Z,53.20
2022-12-18T04:35:38.917Z,53.80
2022-12-18T04:38:06.786Z,54.70
2022-12-18T04:40:33.688Z,55.00
2022-12-18T04:43:00.627Z,55.00
2022-12-18T04:45:27.515Z,55.00
2022-12-18T04:47:54.448Z,54.90
2022-12-18T04:50:21.341Z,54.90
2022-12-18T04:52:48.235Z,54.70
2022-12-18T04:55:18.615Z,54.90
2022-12-18T04:57:45.545Z,54.80
2022-12-18T05:00:12.731Z,54.50
2022-12-18T05:02:39.894Z,55.10
2022-12-18T05:05:07.513Z,54.80
2022-12-18T05:07:34.451Z,54.70
2022-12-18T05:10:01.337Z,55.10
2022-12-18T05:12:28.374Z,55.20
2022-12-18T05:14:55.325Z,55.00
2022-12-18T05:17:22.237Z,54.60
2022-12-18T05:19:49.193Z,54.10
2022-12-18T05:22:16.645Z,54.00
2022-12-18T05:24:43.533Z,54.40
2022-12-18T05:27:10.490Z,54.90
2022-12-18T05:29:37.406Z,55.20
2022-12-18T05:32:04.459Z,55.40
2022-12-18T05:34:31.283Z,55.90
2022-12-18T05:36:58.249Z,54.40
2022-12-18T05:39:25.195Z,54.00
2022-12-18T05:41:52.024Z,53.80
2022-12-18T05:44:19.082Z,54.20
2022-12-18T05:46:46.028Z,53.50
2022-12-18T05:49:13.002Z,54.00
2022-12-18T05:51:39.906Z,53.60
2022-12-18T05:54:08.628Z,54.00
2022-12-18T05:56:35.574Z,54.30
2022-12-18T05:59:02.518Z,54.20
2022-12-18T06:01:29.928Z,53.90
2022-12-18T06:03:58.069Z,54.00
2022-12-18T06:06:25.715Z,54.00
2022-12-18T06:08:52.615Z,54.10
2022-12-18T06:11:20.669Z,54.20
2022-12-18T06:13:47.819Z,54.60
2022-12-18T06:16:14.941Z,54.60
2022-12-18T06:18:41.881Z,54.70
2022-12-18T06:21:08.919Z,54.50
2022-12-18T06:23:36.336Z,54.50
2022-12-18T06:26:07.224Z,54.70
2022-12-18T06:28:34.212Z,54.70
2022-12-18T06:31:01.453Z,54.70
2022-12-18T06:33:29.278Z,55.20
2022-12-18T06:36:01.169Z,55.50
2022-12-18T06:38:28.395Z,55.40
2022-12-18T06:40:55.547Z,55.10
2022-12-18T06:43:24.493Z,55.00
2022-12-18T06:45:53.923Z,54.90
2022-12-18T06:48:21.174Z,54.80
2022-12-18T06:50:48.133Z,54.80
2022-12-18T06:53:15.276Z,54.40
2022-12-18T06:55:42.223Z,54.40
2022-12-18T06:58:09.132Z,54.30
2022-12-18T07:00:38.260Z,54.00
2022-12-18T07:03:05.471Z,53.60
2022-12-18T07:05:32.424Z,53.40
2022-12-18T07:07:59.701Z,53.40
2022-12-18T07:10:26.701Z,53.60
2022-12-18T07:12:53.713Z,53.70
2022-12-18T07:15:20.624Z,53.70
2022-12-18T07:17:47.656Z,53.20
2022-12-18T07:20:15.421Z,53.30
2022-12-18T07:22:42.332Z,53.40
2022-12-18T07:25:11.810Z,53.30
2022-12-18T07:27:38.728Z,53.40
2022-12-18T07:30:06.371Z,53.20
2022-12-18T07:32:33.344Z,53.10
2022-12-18T07:35:00.202Z,53.20
2022-12-18T07:37:27.140Z,52.90
2022-12-18T07:39:54.058Z,52.60
2022-12-18T07:42:33.113Z,52.70
2022-12-18T07:45:00.770Z,53.60
2022-12-18T07:47:28.158Z,52.80
2022-12-18T07:49:56.435Z,52.60
2022-12-18T07:52:26.230Z,52.80
2022-12-18T07:54:53.433Z,53.10
2022-12-18T07:57:48.379Z,53.50
2022-12-18T08:00:07.686Z,53.80
2022-12-18T08:02:34.795Z,54.30
2022-12-18T08:05:02.180Z,54.60
2022-12-18T08:07:29.412Z,54.70
2022-12-18T08:09:56.362Z,54.80
2022-12-18T08:12:23.453Z,54.90
2022-12-18T08:14:50.337Z,53.20
2022-12-18T08:17:17.222Z,50.60
2022-12-18T08:19:44.197Z,47.40
2022-12-18T08:22:11.060Z,43.40
2022-12-18T08:24:38.378Z,39.90
2022-12-18T08:29:52.351Z,34.30
2022-12-18T08:32:19.310Z,31.80
2022-12-18T08:34:46.254Z,30.60
2022-12-18T08:37:13.229Z,30.40
2022-12-18T08:39:40.161Z,30.30
2022-12-18T08:42:25.721Z,29.80
2022-12-18T08:44:52.738Z,29.70
2022-12-18T08:47:19.693Z,29.50
2022-12-18T08:49:46.688Z,29.00
2022-12-18T08:52:13.760Z,28.30
2022-12-18T08:54:40.803Z,27.80
2022-12-18T08:57:08.058Z,27.30
2022-12-18T08:59:34.972Z,27.00
2022-12-18T09:02:02.058Z,26.30
2022-12-18T09:04:29.174Z,26.00
2022-12-18T09:06:56.415Z,26.00
2022-12-18T09:09:23.363Z,25.80
2022-12-18T09:11:50.356Z,25.30
2022-12-18T09:14:17.262Z,25.40
2022-12-18T09:16:44.347Z,25.40
2022-12-18T09:19:12.696Z,25.10
2022-12-18T09:21:47.757Z,25.10
2022-12-18T09:24:15.435Z,24.70
2022-12-18T09:26:43.485Z,24.60
2022-12-18T09:29:13.894Z,24.60
2022-12-18T09:31:41.922Z,24.40
2022-12-18T09:34:08.931Z,24.40
2022-12-18T09:36:35.946Z,24.30
2022-12-18T09:39:07.819Z,23.80
2022-12-18T09:41:45.222Z,23.90
2022-12-18T09:44:20.587Z,24.00
2022-12-18T09:46:50.826Z,24.20
2022-12-18T09:49:19.089Z,24.00
2022-12-18T09:51:54.149Z,23.90
2022-12-18T09:54:25.267Z,23.70
2022-12-18T09:56:53.172Z,23.30
2022-12-18T09:59:25.666Z,23.40
2022-12-18T10:01:52.752Z,24.20
2022-12-18T10:04:20.133Z,25.90
2022-12-18T10:06:49.276Z,27.50
2022-12-18T10:09:28.888Z,28.70
2022-12-18T10:12:14.520Z,30.00
2022-12-18T10:14:43.621Z,31.50
2022-12-18T10:17:29.460Z,33.00
2022-12-18T10:20:15.146Z,33.30
2022-12-18T10:22:42.089Z,34.20
2022-12-18T10:25:27.972Z,35.40
2022-12-18T10:27:56.692Z,36.40
2022-12-18T10:30:24.151Z,36.70
2022-12-18T10:32:51.157Z,37.50
2022-12-18T10:35:22.173Z,38.00
2022-12-18T10:38:07.671Z,37.60
2022-12-18T10:40:48.671Z,37.50
2022-12-18T10:43:16.431Z,37.20
2022-12-18T10:45:45.821Z,37.00
2022-12-18T10:48:19.435Z,36.40
2022-12-18T10:51:10.445Z,34.20
2022-12-18T10:53:36.686Z,32.10
2022-12-18T10:56:04.462Z,31.90
2022-12-18T10:58:38.704Z,31.90
2022-12-18T11:01:05.692Z,32.00
2022-12-18T11:03:34.196Z,31.40
2022-12-18T11:06:16.576Z,29.40
2022-12-18T11:08:46.021Z,27.50
2022-12-18T11:11:31.115Z,26.80
2022-12-18T11:14:05.392Z,27.90
2022-12-18T11:19:41.061Z,31.40
2022-12-18T11:22:29.013Z,33.40
2022-12-18T11:25:29.479Z,34.10
2022-12-18T11:27:43.155Z,34.70
2022-12-18T11:30:14.608Z,35.00
2022-12-18T11:32:42.496Z,35.30
2022-12-18T11:35:14.886Z,35.30
2022-12-18T11:37:43.151Z,35.60
2022-12-18T11:40:18.106Z,35.80
2022-12-18T11:43:03.508Z,36.10
2022-12-18T11:45:33.004Z,36.40
2022-12-18T11:48:18.576Z,36.50
2022-12-18T11:50:52.598Z,37.50
2022-12-18T11:53:21.636Z,37.00
2022-12-18T11:55:51.119Z,36.50
2022-12-18T11:58:31.377Z,36.80
2022-12-18T12:01:18.158Z,36.70
2022-12-18T12:03:57.800Z,37.20
2022-12-18T12:06:41.108Z,37.50
2022-12-18T12:09:15.324Z,37.60
2022-12-18T12:12:11.949Z,36.80
2022-12-18T12:14:51.624Z,34.10
2022-12-18T12:17:27.509Z,31.30
2022-12-18T12:20:00.332Z,28.80
2022-12-18T12:22:50.199Z,27.70
2022-12-18T12:25:23.406Z,26.60
2022-12-18T12:28:03.047Z,25.60
2022-12-18T12:30:46.685Z,25.30
2022-12-18T12:33:14.311Z,24.80
2022-12-18T12:35:43.947Z,24.70
2022-12-18T12:38:24.609Z,23.90
2022-12-18T12:41:02.407Z,23.50
2022-12-18T12:43:47.688Z,23.30
2022-12-18T12:46:20.060Z,23.20
2022-12-18T12:48:49.042Z,23.10
2022-12-18T12:51:22.114Z,23.30
2022-12-18T12:53:49.313Z,23.20
2022-12-18T12:56:17.080Z,23.20
2022-12-18T12:58:49.069Z,23.30
2022-12-18T13:01:25.468Z,24.00
2022-12-18T13:04:02.837Z,23.70
2022-12-18T13:06:59.850Z,23.60
2022-12-18T13:09:31.075Z,23.40
2022-12-18T13:12:23.335Z,23.50
2022-12-18T13:14:50.384Z,23.40
2022-12-18T13:17:21.067Z,23.70
2022-12-18T13:19:51.798Z,23.50
2022-12-18T13:22:25.209Z,23.70
2022-12-18T13:27:45.448Z,24.80
2022-12-18T13:30:30.855Z,25.40
2022-12-18T13:33:16.300Z,25.60
2022-12-18T13:35:52.377Z,25.50
2022-12-18T13:38:23.865Z,25.50
2022-12-18T13:40:50.712Z,25.40
2022-12-18T13:43:20.652Z,25.70
2022-12-18T13:46:00.934Z,25.60
2022-12-18T13:48:28.352Z,25.60
2022-12-18T13:50:59.991Z,25.80
2022-12-18T13:54:05.545Z,26.10
2022-12-18T13:56:34.136Z,26.30
2022-12-18T13:59:08.154Z,26.80
2022-12-18T14:01:35.388Z,27.50
2022-12-18T14:04:20.971Z,28.60
2022-12-18T14:06:48.387Z,29.60
2022-12-18T14:09:41.165Z,30.80
2022-12-18T14:12:26.496Z,31.70
2022-12-18T14:14:55.108Z,32.10
2022-12-18T14:17:22.453Z,32.60
2022-12-18T14:19:50.653Z,33.10
2022-12-18T14:22:20.692Z,33.90
2022-12-18T14:24:47.912Z,34.10
2022-12-18T14:27:24.641Z,34.50
2022-12-18T14:29:51.877Z,35.00
2022-12-18T14:32:19.947Z,35.20
2022-12-18T14:34:49.805Z,35.60
2022-12-18T14:37:17.851Z,36.50
2022-12-18T14:39:59.073Z,36.80
2022-12-18T14:42:29.868Z,37.60
2022-12-18T14:45:15.686Z,38.80
2022-12-18T14:47:44.397Z,39.60
2022-12-18T14:50:14.971Z,40.30
2022-12-18T14:52:42.196Z,40.50
2022-12-18T14:55:16.415Z,40.90
2022-12-18T14:57:45.552Z,41.40
2022-12-18T15:00:16.658Z,42.20
2022-12-18T15:02:43.825Z,42.00
2022-12-18T15:05:13.925Z,42.10
2022-12-18T15:07:51.027Z,42.00
2022-12-18T15:10:19.097Z,42.10
2022-12-18T15:13:06.699Z,42.80
2022-12-18T15:15:43.602Z,43.00
2022-12-18T15:18:14.265Z,43.10
2022-12-18T15:20:43.050Z,43.60
2022-12-18T15:23:16.906Z,43.80
2022-12-18T15:25:44.658Z,44.30
2022-12-18T15:28:37.858Z,44.60
2022-12-18T15:31:07.418Z,45.10
2022-12-18T15:33:35.370Z,44.90
2022-12-18T15:36:03.726Z,45.10
2022-12-18T15:38:30.675Z,45.00
2022-12-18T15:40:57.764Z,45.10
2022-12-18T15:43:35.010Z,45.30
2022-12-18T15:46:06.262Z,45.80
2022-12-18T15:48:36.317Z,46.20
2022-12-18T15:51:03.271Z,46.40
2022-12-18T15:53:31.131Z,46.40
2022-12-18T15:56:16.719Z,46.50
2022-12-18T15:58:43.705Z,46.50
2022-12-18T16:01:10.832Z,47.60
2022-12-18T16:03:38.133Z,48.80
2022-12-18T16:06:05.355Z,49.70
2022-12-18T16:08:33.736Z,49.80
2022-12-18T16:11:00.768Z,49.80
2022-12-18T16:13:27.740Z,49.30
2022-12-18T16:15:55.379Z,48.90
2022-12-18T16:18:22.680Z,48.40
2022-12-18T16:20:49.788Z,49.10
2022-12-18T16:23:16.942Z,49.20
2022-12-18T16:25:44.049Z,49.20
2022-12-18T16:28:11.088Z,49.50
2022-12-18T16:30:43.050Z,49.50
2022-12-18T16:33:10.915Z,49.80
2022-12-18T16:35:38.335Z,50.20
2022-12-18T16:38:05.364Z,50.40
2022-12-18T16:40:32.739Z,50.60
2022-12-18T16:42:59.589Z,50.70
2022-12-18T16:45:26.670Z,50.90
2022-12-18T16:47:53.598Z,51.10
2022-12-18T16:50:23.882Z,50.70
2022-12-18T16:52:51.088Z,51.10
2022-12-18T16:55:18.018Z,51.60
2022-12-18T16:57:45.047Z,50.90
2022-12-18T17:00:12.624Z,51.10
2022-12-18T17:02:40.099Z,50.80
2022-12-18T17:05:11.948Z,50.70
2022-12-18T17:07:39.047Z,51.00
2022-12-18T17:10:06.173Z,51.30
2022-12-18T17:12:33.248Z,51.50
2022-12-18T17:15:00.319Z,51.50
2022-12-18T17:17:27.325Z,51.60
2022-12-18T17:19:54.623Z,52.00
2022-12-18T17:22:23.485Z,52.70
2022-12-18T17:24:51.448Z,52.30
2022-12-18T17:27:18.570Z,52.40
2022-12-18T17:29:48.289Z,52.50
2022-12-18T17:32:16.219Z,52.50
2022-12-18T17:34:44.070Z,52.30
2022-12-18T17:37:11.524Z,52.50
2022-12-18T17:39:39.473Z,52.50
2022-12-18T17:42:07.253Z,52.60
2022-12-18T17:44:36.219Z,52.80
2022-12-18T17:47:03.495Z,52.90
2022-12-18T17:49:31.245Z,52.90
2022-12-18T17:51:58.220Z,52.90
2022-12-18T17:54:25.367Z,53.30
2022-12-18T17:56:52.844Z,53.30
2022-12-18T17:59:20.095Z,53.60
2022-12-18T18:01:47.264Z,53.70
2022-12-18T18:04:14.519Z,54.10
2022-12-18T18:06:41.546Z,54.10
2022-12-18T18:09:16.122Z,54.10
2022-12-18T18:12:03.079Z,54.60
2022-12-18T18:14:30.125Z,54.60
2022-12-18T18:16:59.206Z,54.20
2022-12-18T18:19:31.583Z,54.10
2022-12-18T18:21:58.534Z,54.10
2022-12-18T18:24:26.093Z,53.70
2022-12-18T18:26:53.206Z,53.60
2022-12-18T18:29:24.200Z,53.40
2022-12-18T18:31:53.840Z,53.40
2022-12-18T18:34:21.901Z,54.00
2022-12-18T18:36:49.147Z,54.20
2022-12-18T18:39:16.206Z,54.40
2022-12-18T18:41:47.184Z,54.50
2022-12-18T18:44:15.879Z,54.30
2022-12-18T18:46:42.849Z,54.30
2022-12-18T18:49:10.138Z,54.30
2022-12-18T18:51:37.077Z,54.30
2022-12-18T18:54:04.451Z,54.10
2022-12-18T18:56:56.257Z,54.10
2022-12-18T18:59:19.198Z,54.30
2022-12-18T19:01:48.808Z,54.70
2022-12-18T19:04:16.033Z,54.90
2022-12-18T19:06:46.806Z,54.90
2022-12-18T19:09:14.170Z,55.20
2022-12-18T19:11:59.706Z,55.80
2022-12-18T19:14:26.793Z,55.90
2022-12-18T19:16:54.471Z,55.80
2022-12-18T19:19:22.800Z,55.60
2022-12-18T19:21:50.339Z,55.70
2022-12-18T19:24:19.113Z,55.80
2022-12-18T19:26:46.174Z,55.90
2022-12-18T19:29:14.876Z,55.90
2022-12-18T19:31:42.188Z,56.00
2022-12-18T19:34:09.719Z,56.00
2022-12-18T19:36:37.427Z,56.10
2022-12-18T19:39:09.412Z,56.30
2022-12-18T19:41:36.375Z,56.10
2022-12-18T19:44:08.097Z,56.10
2022-12-18T19:46:35.505Z,56.00
2022-12-18T19:49:02.515Z,55.80
2022-12-18T19:51:30.211Z,56.00
2022-12-18T19:53:59.067Z,56.40
2022-12-18T19:56:27.533Z,56.40
2022-12-18T19:58:54.460Z,56.70
2022-12-18T20:01:22.437Z,57.10
2022-12-18T20:03:52.275Z,57.40
2022-12-18T20:06:25.878Z,57.40
2022-12-18T20:08:57.637Z,57.70
2022-12-18T20:11:27.417Z,57.70
2022-12-18T20:13:54.318Z,57.60
2022-12-18T20:16:21.206Z,57.60
2022-12-18T20:18:48.302Z,57.70
2022-12-18T20:21:16.162Z,58.00
2022-12-18T20:23:43.603Z,58.40
2022-12-18T20:26:11.087Z,58.70
2022-12-18T20:28:40.095Z,58.70
2022-12-18T20:31:10.387Z,58.90
2022-12-18T20:33:37.778Z,58.70
2022-12-18T20:36:06.402Z,58.40
2022-12-18T20:38:34.753Z,57.80
2022-12-18T20:41:02.639Z,57.40
2022-12-18T20:43:29.782Z,57.10
2022-12-18T20:46:03.534Z,57.10
2022-12-18T20:48:30.639Z,57.10
2022-12-18T20:51:02.578Z,57.00
2022-12-18T20:53:31.142Z,57.10
2022-12-18T20:55:58.179Z,57.30
2022-12-18T20:58:25.106Z,57.50
2022-12-18T21:01:03.574Z,57.60
2022-12-18T21:03:30.651Z,57.90
2022-12-18T21:05:57.631Z,57.90
2022-12-18T21:08:24.505Z,57.90
2022-12-18T21:10:51.362Z,58.20
2022-12-18T21:13:21.050Z,58.00
2022-12-18T21:15:48.108Z,57.90
2022-12-18T21:18:15.171Z,57.90
2022-12-18T21:20:42.170Z,57.80
2022-12-18T21:23:16.633Z,57.90
2022-12-18T21:25:44.565Z,58.00
2022-12-18T21:28:13.535Z,57.90
2022-12-18T21:30:41.808Z,57.90
2022-12-18T21:33:08.881Z,58.00
2022-12-18T21:35:36.321Z,58.10
2022-12-18T21:38:05.713Z,58.20
2022-12-18T21:40:32.985Z,58.30
2022-12-18T21:43:18.760Z,58.30
2022-12-18T21:45:45.794Z,58.40
2022-12-18T21:48:12.853Z,58.30
2022-12-18T21:50:39.782Z,58.20
2022-12-18T21:53:06.779Z,58.00
2022-12-18T21:55:33.976Z,58.40
2022-12-18T21:58:01.154Z,58.80
2022-12-18T22:00:29.036Z,58.90
2022-12-18T22:03:17.547Z,59.60
2022-12-18T22:05:43.176Z,60.10
2022-12-18T22:08:10.387Z,60.20
2022-12-18T22:10:37.771Z,59.90
2022-12-18T22:13:05.137Z,60.90
2022-12-18T22:15:32.422Z,61.80
2022-12-18T22:18:00.658Z,62.10
2022-12-18T22:20:28.352Z,61.70
2022-12-18T22:22:57.384Z,61.00
2022-12-18T22:25:24.402Z,60.40
2022-12-18T22:28:10.750Z,60.00
2022-12-18T22:30:37.656Z,60.00
2022-12-18T22:33:04.600Z,59.80
2022-12-18T22:35:31.635Z,59.60
2022-12-18T22:37:59.187Z,59.30
2022-12-18T22:40:26.463Z,59.00
2022-12-18T22:42:53.775Z,58.90
2022-12-18T22:45:23.529Z,58.90
2022-12-18T22:47:50.774Z,58.90
2022-12-18T22:50:17.708Z,59.00
2022-12-18T22:52:44.852Z,58.90
2022-12-18T22:55:12.030Z,58.70
2022-12-18T22:57:40.632Z,58.70
2022-12-18T23:00:11.812Z,58.80
2022-12-18T23:02:38.856Z,58.90
2022-12-18T23:05:06.227Z,58.80
2022-12-18T23:07:33.739Z,58.60
2022-12-18T23:10:01.234Z,58.60
2022-12-18T23:12:28.297Z,59.10
2022-12-18T23:14:55.306Z,58.50
2022-12-18T23:17:22.303Z,58.20
2022-12-18T23:19:49.566Z,58.40
2022-12-18T23:22:16.968Z,58.20
2022-12-18T23:24:43.856Z,58.20
2022-12-18T23:27:11.959Z,58.20
2022-12-18T23:29:39.905Z,58.30
2022-12-18T23:32:06.979Z,58.30
2022-12-18T23:34:33.897Z,58.30
2022-12-18T23:37:01.410Z,58.30
2022-12-18T23:39:30.281Z,58.30
2022-12-18T23:41:58.012Z,58.30
2022-12-18T23:44:25.104Z,58.40
2022-12-18T23:46:52.088Z,58.50
2022-12-18T23:49:19.017Z,58.70
2022-12-18T23:51:45.993Z,58.50
2022-12-18T23:54:12.952Z,58.30
2022-12-18T23:56:40.001Z,58.00
2022-12-18T23:59:06.947Z,57.90
